This is the latest recevied weather packets stored in our database for station/object KB4MOX. If no packets are shown the sender has not sent any weather packets the latest 10 day(s).
| Time | Temp. | Humidity | Pressure | Rain* | Wind** | Luminosity | Snow |
|---|---|---|---|---|---|---|---|
| 1787870308 | 21.67° C | 92% | 1015.8 hPa | 1.27 mm | - | 9 W/m² | - |
| 1787870003 | 21.67° C | 91% | 1015.9 hPa | 3.05 mm | - | 11 W/m² | - |
| 1787869703 | 22.22° C | 90% | 1016.1 hPa | 3.05 mm | - | 5 W/m² | - |
| 1787869402 | 22.78° C | 89% | 1016.2 hPa | 1.78 mm | - | 3 W/m² | - |
| 1787869097 | 23.89° C | 86% | 1016 hPa | 3.05 mm | - | 4 W/m² | - |
| 1787868795 | 25.56° C | 79% | 1016 hPa | 1.27 mm | - | 10 W/m² | - |
| 1787868495 | 26.67° C | 75% | 1015.8 hPa | 0 mm | - | 3 W/m² | - |
| 1787868194 | 26.67° C | 75% | 1015.5 hPa | 0 mm | - | 3 W/m² | - |
| 1787867889 | 27.22° C | 75% | 1015.4 hPa | 0 mm | - | 7 W/m² | - |
| 1787867585 | 27.78° C | 73% | 1015.2 hPa | 0 mm | - | 13 W/m² | - |
| 1787867284 | 27.78° C | 73% | 1015.1 hPa | 0 mm | - | 34 W/m² | - |
| 1787866981 | 27.78° C | 75% | 1015.1 hPa | 0 mm | - | 60 W/m² | - |
| 1787866675 | 27.78° C | 75% | 1015 hPa | 0 mm | - | 57 W/m² | - |
| 1787866374 | 27.78° C | 75% | 1015.1 hPa | 0 mm | - | 39 W/m² | - |
| 1787866069 | 27.78° C | 74% | 1014.9 hPa | 0 mm | - | 31 W/m² | - |
| 1787865764 | 28.33° C | 75% | 1014.7 hPa | 0 mm | - | 62 W/m² | - |
| 1787865459 | 28.33° C | 75% | 1014.5 hPa | 0 mm | - | 63 W/m² | - |
| 1787865153 | 28.33° C | 74% | 1014.6 hPa | 0 mm | - | 54 W/m² | - |
| 1787864850 | 28.89° C | 74% | 1014.4 hPa | 0 mm | - | 75 W/m² | - |
| 1787864550 | 28.89° C | 73% | 1014.6 hPa | 0 mm | - | 99 W/m² | - |
| 1787864245 | 29.44° C | 72% | 1014.7 hPa | 0 mm | - | 104 W/m² | - |
| 1787863939 | 29.44° C | 71% | 1014.6 hPa | 0 mm | - | 125 W/m² | - |
| 1787863638 | 30° C | 69% | 1014.6 hPa | 0 mm | - | 161 W/m² | - |
| 1787863337 | 30° C | 68% | 1014.5 hPa | 0 mm | - | 164 W/m² | - |
| 1787863033 | 31.11° C | 65% | 1014.2 hPa | 0 mm | - | 143 W/m² | - |
* Rain latest hour (hover to see other rain measurements)
** Current wind speed in m/s (hover to see current wind gust speed)